San Francisco, CA

9:33 AM PDT on October 02, 2014 (GMT -0700)
APRSWXNET San Francisco CA US | Change Station
CLOSE
Current Station
Personal Weather Station
Location: San Francisco, CA
Elevation: 290 ft
Nearby Weather Stations
Active Advisory: Heat Advisory

Elev 290 ft 37.76 °N, 122.40 °W | Updated 6 days ago

Clear
Clear
75 °F
Feels Like 75 °F
N
5
Wind Variable Wind from ENE
Gusts 6 mph

Today
High -- | Low -- °F
--% Chance of Precip.
Yesterday
High -- | Low -- °F
Precip. -- in
7:06 AM 6:50 PM
First Quarter, 60% visible
Pressure 30.02 in
Visibility 10.0 miles
Clouds Clear
Dew Point 55 °F
Humidity 51%
Rainfall 0.00 in
Snow Depth 0 in , 0 in , 1 in
UV 1 out of 12
Pollen 3.90 out of 12
Ozone Good
PM2.5 Good
Flu Activity Not available.
METAR KOAK 021553Z 15005KT 10SM CLR 20/07 A3002 RMK AO2 SLP166 T02000067

More Conditions Fewer Conditions

Pressure 30.02 in
Visibility 10.0 miles
Clouds Clear
Dew Point 55 °F
Humidity 51%
Rainfall 0.00 in
Snow Depth 0 in , 0 in , 1 in
UV 1 out of 12
Pollen 3.90 out of 12
Ozone Good
PM2.5 Good
Flu Activity Not available.
METAR KOAK 021553Z 15005KT 10SM CLR 20/07 A3002 RMK AO2 SLP166 T02000067

More Conditions Fewer Conditions

10-Day Weather Forecast

Almanac

Astronomy

Oct. 02, 2014 Rise Set
Actual Time 7:06 AM PDT 6:50 PM PDT
Civil Twilight 6:39 AM PDT 7:17 PM PDT
Nautical Twilight 6:09 AM PDT 7:47 PM PDT
Astronomical Twilight 5:38 AM PDT 8:18 PM PDT
Moon 2:56 PM PDT 12:34 AM PDT
Length of Visible Light 12h 37m
Length of Day
11h 44m
Tomorrow will be 2m 24s shorter.
First Quarter, 60% of the Moon is Illuminated
Today
First Quarter
Oct 8
Full
Oct 15
Last Quarter
Oct 23
New
Oct 30
First Quarter

Today's Extremes

State Highs State Lows

Community

WunderPhotos

Upload Photos

1,758,294 photos uploaded!

WunderBlogs® & News

Nearby

Air Quality

  Air Quality AQ Index Pollutant
Yesterday Good
PM2.5
Yesterday Good
OZONE
Current Good
PM2.5
Current Good
OZONE
Thursday Moderate
NO2
Friday Moderate
NO2
Saturday Moderate
PM2.5
Sunday Moderate
PM2.5
Monday Moderate
PM2.5

Snow Depth

Station Depth Elevation
Leavitt Meadows 0 in 7200 ft
Truckee #2 0 in 6400 ft
Rubicon #2 1 in 7500 ft
Monitor Pass 0 in 8350 ft
Tahoe City Cross 0 in 6750 ft

Earthquake Activity

City Distance Mag. Time & Date
South Dos Palos, California 115 miles 3.0 11:17 AM PDT
2014-10-01
East Foothills, California 39 miles 2.6 3:34 PM PDT
2014-09-30
South Dos Palos, California 115 miles 2.7 3:08 PM PDT
2014-09-30
South Dos Palos, California 115 miles 2.5 9:18 PM PDT
2014-09-29
Minimum magnitude displayed is 2.5.

Coastal Water Temperatures

Place Temperature
No Stations Reporting

Nearby Weather Stations